Time;durP1;ratioP1;P1;durP2;ratioP2;P2;SDS_P1;SDS_P2;PMS_P1;PMS_P2;Temp;Humidity;BMP_temperature;BMP_pressure;BME280_temperature;BME280_humidity;BME280_pressure;Samples;Min_cycle;Max_cycle;Signal;HPM_P1;HPM_P2
2024/01/15 05:00:55;;;;;;;;;;;-2.90;99.90;;;;;;4977302;28;20000;-74
2024/01/15 05:03:21;;;;;;;;;;;-2.80;99.90;;;;;;4977219;28;19926;-75
2024/01/15 05:05:48;;;;;;;;;;;-2.80;99.90;;;;;;4977355;28;19926;-74
2024/01/15 05:08:14;;;;;;;;;;;-2.80;99.90;;;;;;4977213;28;19926;-74
2024/01/15 05:10:41;;;;;;;;;;;-2.80;99.90;;;;;;4977059;28;19933;-73
2024/01/15 05:13:07;;;;;;;;;;;-2.80;99.90;;;;;;4976999;28;19926;-74
2024/01/15 05:15:34;;;;;;;;;;;-2.70;99.90;;;;;;4977357;28;19926;-73
2024/01/15 05:18:02;;;;;;;;;;;-2.70;99.90;;;;;;4976925;28;19926;-73
2024/01/15 05:20:28;;;;;;;;;;;-2.70;99.90;;;;;;4976896;28;19926;-73
2024/01/15 05:22:55;;;;;;;;;;;-2.70;99.90;;;;;;4977004;28;19937;-73
2024/01/15 05:25:21;;;;;;;;;;;-2.60;99.90;;;;;;4977219;28;19933;-73
2024/01/15 05:27:48;;;;;;;;;;;-2.60;99.90;;;;;;4976632;28;20028;-73
2024/01/15 05:30:15;;;;;;;;;;;-2.60;99.90;;;;;;4976722;28;19941;-74
2024/01/15 05:32:41;;;;;;;;;;;-2.60;99.90;;;;;;4976675;28;20272;-74
2024/01/15 05:35:09;;;;;;;;;;;-2.50;99.90;;;;;;4976854;28;19932;-73
2024/01/15 05:37:36;;;;;;;;;;;-2.50;99.90;;;;;;4976270;28;20269;-74
2024/01/15 05:40:04;;;;;;;;;;;-2.50;99.90;;;;;;4976507;28;19926;-74
2024/01/15 05:42:31;;;;;;;;;;;-2.40;99.90;;;;;;4976165;28;19973;-73
2024/01/15 05:44:59;;;;;;;;;;;-2.40;99.90;;;;;;4976771;28;19926;-74
2024/01/15 05:47:25;;;;;;;;;;;-2.30;99.90;;;;;;4976610;28;19932;-75
2024/01/15 05:49:52;;;;;;;;;;;-2.30;99.90;;;;;;4976405;28;19930;-75
2024/01/15 05:52:20;;;;;;;;;;;-2.20;99.90;;;;;;4976590;28;19926;-75
2024/01/15 05:54:47;;;;;;;;;;;-2.20;99.90;;;;;;4976773;28;19953;-75
2024/01/15 05:57:14;;;;;;;;;;;-2.10;99.90;;;;;;4976093;28;19926;-75
2024/01/15 05:59:40;;;;;;;;;;;-2.10;99.90;;;;;;4975964;28;19932;-72
2024/01/15 06:02:07;;;;;;;;;;;-2.00;99.90;;;;;;4976016;28;19952;-71
2024/01/15 06:04:33;;;;;;;;;;;-2.00;99.90;;;;;;4976093;28;19930;-72
2024/01/15 06:07:00;;;;;;;;;;;-2.00;99.90;;;;;;4975687;28;19948;-73
2024/01/15 06:09:28;;;;;;;;;;;-1.90;99.90;;;;;;4975921;28;19926;-73
2024/01/15 06:11:54;;;;;;;;;;;-1.90;99.90;;;;;;4975917;28;19972;-73
2024/01/15 06:14:21;;;;;;;;;;;-1.80;99.90;;;;;;4975769;28;19926;-73
2024/01/15 06:16:48;;;;;;;;;;;-1.80;99.90;;;;;;4975895;28;19937;-73
2024/01/15 06:19:14;;;;;;;;;;;-1.80;99.90;;;;;;4975704;28;20277;-73
2024/01/15 06:21:41;;;;;;;;;;;-1.70;99.90;;;;;;4975637;28;20300;-74
2024/01/15 06:24:09;;;;;;;;;;;-1.70;99.90;;;;;;4976360;28;19937;-73
2024/01/15 06:26:37;;;;;;;;;;;-1.60;99.90;;;;;;4975606;28;20280;-74
2024/01/15 06:29:04;;;;;;;;;;;-1.70;99.90;;;;;;4975528;28;20315;-74
2024/01/15 06:31:30;;;;;;;;;;;-1.70;99.90;;;;;;4975348;28;20311;-74
2024/01/15 06:33:57;;;;;;;;;;;-1.80;99.90;;;;;;4975776;28;19949;-74
2024/01/15 06:36:23;;;;;;;;;;;-1.80;99.90;;;;;;4975760;28;19933;-74
2024/01/15 06:38:50;;;;;;;;;;;-1.80;99.90;;;;;;4975603;28;19926;-74
2024/01/15 06:41:16;;;;;;;;;;;-1.90;99.90;;;;;;4975872;28;19926;-74
2024/01/15 06:43:44;;;;;;;;;;;-1.90;99.90;;;;;;4975758;28;19926;-74
2024/01/15 06:46:11;;;;;;;;;;;-1.90;99.90;;;;;;4976097;28;20327;-74
2024/01/15 06:48:37;;;;;;;;;;;-1.90;99.90;;;;;;4975645;28;19930;-75
2024/01/15 06:51:06;;;;;;;;;;;-1.90;99.90;;;;;;4976294;28;20306;-74
2024/01/15 06:53:35;;;;;;;;;;;-1.90;99.90;;;;;;4975828;28;19926;-74
2024/01/15 06:56:02;;;;;;;;;;;-2.10;99.90;;;;;;4975046;28;20012;-73
2024/01/15 06:58:28;;;;;;;;;;;-1.90;99.90;;;;;;4975096;28;20346;-73
2024/01/15 07:00:56;;;;;;;;;;;-2.00;99.90;;;;;;4975231;28;19933;-74
2024/01/15 07:03:23;;;;;;;;;;;-2.00;99.90;;;;;;4975403;28;20300;-74
2024/01/15 07:05:49;;;;;;;;;;;-2.00;99.90;;;;;;4975327;28;20291;-74
2024/01/15 07:08:16;;;;;;;;;;;-2.10;99.90;;;;;;4974723;28;20323;-74
2024/01/15 07:10:43;;;;;;;;;;;-2.00;99.90;;;;;;4976781;28;19926;-74
2024/01/15 07:13:10;;;;;;;;;;;-2.10;99.90;;;;;;4976541;28;19927;-74
2024/01/15 07:15:36;;;;;;;;;;;-2.00;99.90;;;;;;4976477;28;20438;-74
2024/01/15 07:18:05;;;;;;;;;;;-2.10;99.90;;;;;;4975828;28;19947;-74
2024/01/15 07:20:32;;;;;;;;;;;-2.10;99.90;;;;;;4976053;28;19949;-74
2024/01/15 07:22:59;;;;;;;;;;;-2.10;99.90;;;;;;4975672;28;19926;-73
2024/01/15 07:25:27;;;;;;;;;;;-2.10;99.90;;;;;;4975973;28;20295;-73
2024/01/15 07:27:54;;;;;;;;;;;-2.10;99.90;;;;;;4975782;28;20371;-73
2024/01/15 07:30:21;;;;;;;;;;;-2.10;99.90;;;;;;4976317;28;19933;-74
2024/01/15 07:32:48;;;;;;;;;;;-2.10;99.90;;;;;;4976000;28;20032;-73
2024/01/15 07:35:17;;;;;;;;;;;-2.10;99.90;;;;;;4976458;28;20013;-73
2024/01/15 07:37:44;;;;;;;;;;;-2.10;99.90;;;;;;4975989;28;19926;-73
2024/01/15 07:40:11;;;;;;;;;;;-2.20;99.90;;;;;;4975484;28;19930;-73
2024/01/15 07:42:39;;;;;;;;;;;-2.10;99.90;;;;;;4976296;28;19934;-73
2024/01/15 07:45:06;;;;;;;;;;;-2.10;99.90;;;;;;4975386;28;19926;-73
2024/01/15 07:47:32;;;;;;;;;;;-2.10;99.90;;;;;;4974516;28;20323;-73
2024/01/15 07:49:59;;;;;;;;;;;-2.10;99.90;;;;;;4974691;28;20395;-73
2024/01/15 07:52:27;;;;;;;;;;;-2.10;99.90;;;;;;4974602;28;19930;-73
2024/01/15 07:54:53;;;;;;;;;;;-2.10;99.90;;;;;;4974452;28;19926;-73
2024/01/15 07:57:20;;;;;;;;;;;-2.10;99.90;;;;;;4974332;28;19926;-73
2024/01/15 07:59:46;;;;;;;;;;;-2.10;99.90;;;;;;4974340;28;19926;-73
2024/01/15 08:02:13;;;;;;;;;;;-2.00;99.90;;;;;;4974380;28;19933;-73
2024/01/15 08:04:39;;;;;;;;;;;-2.00;99.90;;;;;;4974487;28;19926;-73
2024/01/15 08:07:06;;;;;;;;;;;-2.00;99.90;;;;;;4976191;28;19926;-73
2024/01/15 08:09:34;;;;;;;;;;;-2.00;99.90;;;;;;4978015;28;20396;-73
2024/01/15 08:12:01;;;;;;;;;;;-2.00;99.90;;;;;;4978322;28;19933;-74
2024/01/15 08:14:28;;;;;;;;;;;-2.00;99.90;;;;;;4978135;28;20300;-74
2024/01/15 08:16:54;;;;;;;;;;;-2.00;99.90;;;;;;4977685;28;20308;-73
2024/01/15 08:19:21;;;;;;;;;;;-2.00;99.90;;;;;;4978006;28;19933;-73
2024/01/15 08:21:47;;;;;;;;;;;-2.00;99.90;;;;;;4978213;28;19933;-74
2024/01/15 08:24:15;;;;;;;;;;;-2.00;99.90;;;;;;4978128;28;19926;-73
2024/01/15 08:26:43;;;;;;;;;;;-1.90;99.90;;;;;;4977825;28;19949;-73
2024/01/15 08:29:10;;;;;;;;;;;-1.90;99.90;;;;;;4977866;28;19934;-73
2024/01/15 08:31:36;;;;;;;;;;;-1.90;99.90;;;;;;4978471;28;19949;-73
2024/01/15 08:34:03;;;;;;;;;;;-1.80;99.90;;;;;;4977323;28;19926;-73
2024/01/15 08:36:30;;;;;;;;;;;-1.80;99.90;;;;;;4977615;28;19930;-73
2024/01/15 08:38:57;;;;;;;;;;;-1.80;99.90;;;;;;4977654;28;20029;-73
2024/01/15 08:41:24;;;;;;;;;;;-1.70;99.90;;;;;;4977548;28;19933;-73
2024/01/15 08:43:52;;;;;;;;;;;-1.60;99.90;;;;;;4977806;28;19973;-73
2024/01/15 08:46:19;;;;;;;;;;;-1.30;99.90;;;;;;4977373;28;20028;-73
2024/01/15 08:48:46;;;;;;;;;;;-0.70;99.90;;;;;;4977342;28;19933;-74
2024/01/15 08:51:13;;;;;;;;;;;0.20;99.90;;;;;;4977090;28;19933;-73
2024/01/15 08:53:39;;;;;;;;;;;1.10;99.90;;;;;;4977097;28;19937;-73
2024/01/15 08:56:08;;;;;;;;;;;1.90;99.90;;;;;;4977480;28;19926;-73
2024/01/15 08:58:34;;;;;;;;;;;2.50;99.90;;;;;;4977068;28;19926;-73
2024/01/15 09:01:04;;;;;;;;;;;2.90;99.90;;;;;;4976637;28;22383;-74
2024/01/15 09:03:31;;;;;;;;;;;2.90;99.90;;;;;;4977353;28;19930;-74
2024/01/15 09:05:57;;;;;;;;;;;2.70;99.90;;;;;;4977133;28;19926;-74
2024/01/15 09:08:24;;;;;;;;;;;2.60;99.90;;;;;;4977170;28;19953;-74
2024/01/15 09:10:51;;;;;;;;;;;2.30;99.90;;;;;;4978436;28;20013;-73
2024/01/15 09:13:17;;;;;;;;;;;2.10;99.90;;;;;;4979719;28;20376;-73
2024/01/15 09:15:44;;;;;;;;;;;1.80;99.90;;;;;;4979481;28;20278;-73
2024/01/15 09:18:12;;;;;;;;;;;1.60;99.90;;;;;;4978717;28;19926;-74
2024/01/15 09:20:39;;;;;;;;;;;1.30;99.90;;;;;;4979671;28;19948;-74
2024/01/15 09:23:05;;;;;;;;;;;1.20;99.90;;;;;;4979877;28;19926;-73
2024/01/15 09:25:32;;;;;;;;;;;0.90;99.90;;;;;;4979348;28;19934;-73
2024/01/15 09:27:59;;;;;;;;;;;0.80;99.90;;;;;;4979632;28;19927;-74
2024/01/15 09:30:25;;;;;;;;;;;0.60;99.90;;;;;;4980719;28;19926;-73
2024/01/15 09:32:52;;;;;;;;;;;0.50;99.90;;;;;;4981387;28;19926;-74
2024/01/15 09:35:20;;;;;;;;;;;0.40;99.90;;;;;;4980435;28;20009;-75
2024/01/15 09:37:47;;;;;;;;;;;0.40;99.90;;;;;;4979944;28;19934;-73
2024/01/15 09:40:14;;;;;;;;;;;0.30;99.90;;;;;;4978247;28;20402;-74
2024/01/15 09:42:41;;;;;;;;;;;0.40;99.90;;;;;;4979823;28;19930;-75
2024/01/15 09:45:09;;;;;;;;;;;0.50;99.90;;;;;;4977357;28;19937;-74
2024/01/15 09:47:35;;;;;;;;;;;0.60;99.90;;;;;;4976795;28;20002;-75
2024/01/15 09:50:03;;;;;;;;;;;0.70;99.90;;;;;;4976028;28;19927;-73
2024/01/15 09:52:31;;;;;;;;;;;0.80;99.90;;;;;;4976344;28;19934;-74
2024/01/15 09:55:03;;;;;;;;;;;0.90;99.90;;;;;;4976415;28;19926;-74
2024/01/15 09:57:29;;;;;;;;;;;0.90;99.90;;;;;;4976393;28;19973;-74
2024/01/15 09:59:57;;;;;;;;;;;0.90;99.90;;;;;;4975915;28;19934;-74
2024/01/15 10:02:24;;;;;;;;;;;0.90;99.90;;;;;;4976240;28;19930;-74
2024/01/15 10:04:51;;;;;;;;;;;0.90;99.90;;;;;;4976084;28;19930;-73
2024/01/15 10:07:18;;;;;;;;;;;0.90;99.90;;;;;;4976150;28;19933;-74
2024/01/15 10:09:47;;;;;;;;;;;0.90;99.90;;;;;;4976169;28;19997;-74
2024/01/15 10:12:14;;;;;;;;;;;0.80;99.90;;;;;;4976039;28;19930;-74
2024/01/15 10:14:41;;;;;;;;;;;0.70;99.90;;;;;;4975688;28;20010;-74
2024/01/15 10:17:14;;;;;;;;;;;0.70;99.90;;;;;;4975840;28;19926;-73
2024/01/15 10:19:42;;;;;;;;;;;0.80;99.90;;;;;;4975717;28;20028;-73
2024/01/15 10:22:09;;;;;;;;;;;0.80;99.90;;;;;;4975799;28;20021;-73
2024/01/15 10:24:35;;;;;;;;;;;0.80;99.90;;;;;;4975767;28;19976;-73
2024/01/15 10:27:10;;;;;;;;;;;0.90;99.90;;;;;;4975681;28;19926;-73
2024/01/15 10:29:36;;;;;;;;;;;0.90;99.90;;;;;;4974810;28;20384;-73
2024/01/15 10:32:03;;;;;;;;;;;0.90;99.90;;;;;;4974877;28;20307;-73
2024/01/15 10:34:31;;;;;;;;;;;0.90;99.90;;;;;;4975335;28;20307;-73
2024/01/15 10:36:57;;;;;;;;;;;0.90;99.90;;;;;;4975616;28;19933;-74
2024/01/15 10:39:24;;;;;;;;;;;1.00;99.90;;;;;;4975338;28;19937;-73
2024/01/15 10:41:51;;;;;;;;;;;1.10;99.90;;;;;;4975534;28;19949;-73
2024/01/15 10:44:19;;;;;;;;;;;1.20;99.90;;;;;;4975400;28;19933;-73
2024/01/15 10:46:47;;;;;;;;;;;1.40;99.90;;;;;;4975513;28;20035;-73
2024/01/15 10:49:13;;;;;;;;;;;1.50;99.90;;;;;;4975274;28;19990;-73
2024/01/15 10:51:40;;;;;;;;;;;1.70;99.90;;;;;;4975223;28;19937;-73
2024/01/15 10:54:10;;;;;;;;;;;1.80;99.90;;;;;;4974995;28;19985;-73
2024/01/15 10:56:38;;;;;;;;;;;1.90;99.90;;;;;;4975563;28;19937;-73
2024/01/15 10:59:05;;;;;;;;;;;2.00;99.90;;;;;;4974732;28;19933;-73
2024/01/15 11:01:34;;;;;;;;;;;2.10;99.90;;;;;;4975525;28;19976;-73
2024/01/15 11:04:01;;;;;;;;;;;2.10;99.90;;;;;;4975757;28;19965;-73
2024/01/15 11:06:28;;;;;;;;;;;2.20;99.90;;;;;;4975139;28;19926;-73
2024/01/15 11:08:55;;;;;;;;;;;2.30;99.90;;;;;;4975189;28;19934;-74
2024/01/15 11:11:23;;;;;;;;;;;2.30;99.90;;;;;;4975348;28;19973;-74
2024/01/15 11:13:51;;;;;;;;;;;2.30;99.90;;;;;;4975472;28;20168;-73
2024/01/15 11:16:18;;;;;;;;;;;2.30;99.90;;;;;;4976218;28;19926;-73
2024/01/15 11:19:02;;;;;;;;;;;2.20;99.90;;;;;;4976368;28;19949;-73
2024/01/15 11:21:29;;;;;;;;;;;2.10;99.90;;;;;;4977125;28;20396;-73
2024/01/15 11:23:57;;;;;;;;;;;2.00;99.90;;;;;;4976961;28;20411;-73
2024/01/15 11:26:32;;;;;;;;;;;2.00;99.90;;;;;;4978047;28;19926;-73
2024/01/15 11:28:59;;;;;;;;;;;1.90;99.90;;;;;;4978704;28;20265;-73
2024/01/15 11:31:29;;;;;;;;;;;1.80;99.90;;;;;;4978863;28;19933;-73
2024/01/15 11:33:57;;;;;;;;;;;1.80;99.90;;;;;;4980550;28;20304;-73
2024/01/15 11:36:38;;;;;;;;;;;1.70;99.90;;;;;;4979113;28;19926;-73
2024/01/15 11:39:20;;;;;;;;;;;1.70;99.90;;;;;;4977359;28;20022;-73
2024/01/15 11:41:47;;;;;;;;;;;1.60;99.90;;;;;;4979552;28;19926;-73
2024/01/15 11:44:14;;;;;;;;;;;1.50;99.90;;;;;;4982634;28;19926;-74
2024/01/15 11:46:46;;;;;;;;;;;1.40;99.90;;;;;;4983900;28;19930;-73
2024/01/15 11:49:18;;;;;;;;;;;1.40;99.90;;;;;;4983652;28;19937;-73
2024/01/15 11:51:45;;;;;;;;;;;1.40;99.90;;;;;;4984550;28;19926;-73
2024/01/15 11:54:13;;;;;;;;;;;1.30;99.90;;;;;;4982200;28;20307;-73
2024/01/15 11:56:39;;;;;;;;;;;1.30;99.90;;;;;;4983862;28;19926;-74
2024/01/15 11:59:06;;;;;;;;;;;1.40;99.90;;;;;;4983146;28;19926;-74
2024/01/15 12:01:33;;;;;;;;;;;1.40;99.90;;;;;;4981770;28;19942;-74
2024/01/15 12:03:59;;;;;;;;;;;1.40;99.90;;;;;;4978612;28;19934;-74
2024/01/15 12:06:27;;;;;;;;;;;1.30;99.90;;;;;;4978715;28;19926;-73
2024/01/15 12:09:06;;;;;;;;;;;1.20;99.90;;;;;;4978375;28;20356;-73
2024/01/15 12:11:34;;;;;;;;;;;1.10;99.90;;;;;;4979068;28;19949;-73
2024/01/15 12:14:00;;;;;;;;;;;1.10;99.90;;;;;;4978738;28;19937;-74
2024/01/15 12:16:27;;;;;;;;;;;1.10;99.90;;;;;;4978554;28;19926;-73
2024/01/15 12:18:53;;;;;;;;;;;1.10;99.90;;;;;;4978850;28;19926;-73
2024/01/15 12:21:20;;;;;;;;;;;1.10;99.90;;;;;;4978105;28;19934;-74
2024/01/15 12:23:48;;;;;;;;;;;1.10;99.90;;;;;;4978392;28;19976;-73
2024/01/15 12:26:15;;;;;;;;;;;1.00;99.90;;;;;;4978597;28;20272;-74
2024/01/15 12:28:41;;;;;;;;;;;0.90;99.90;;;;;;4978195;28;19933;-74
2024/01/15 12:31:08;;;;;;;;;;;0.90;99.90;;;;;;4978392;28;19926;-73
2024/01/15 12:33:34;;;;;;;;;;;0.90;99.90;;;;;;4978313;28;19949;-73
2024/01/15 12:36:01;;;;;;;;;;;0.90;99.90;;;;;;4978360;28;19971;-73
2024/01/15 12:38:29;;;;;;;;;;;0.90;99.90;;;;;;4978119;28;19926;-73
2024/01/15 12:40:57;;;;;;;;;;;0.90;99.90;;;;;;4978267;28;19926;-74
2024/01/15 12:43:23;;;;;;;;;;;1.00;99.90;;;;;;4979314;28;19933;-72
2024/01/15 12:45:51;;;;;;;;;;;1.00;99.90;;;;;;4979909;28;19930;-74
2024/01/15 12:48:18;;;;;;;;;;;1.10;99.90;;;;;;4979434;28;19933;-73
2024/01/15 12:50:45;;;;;;;;;;;1.20;99.90;;;;;;4979488;28;19926;-73
2024/01/15 12:53:12;;;;;;;;;;;1.30;99.90;;;;;;4978634;28;19976;-73
2024/01/15 12:55:38;;;;;;;;;;;1.30;99.90;;;;;;4979616;28;19926;-74
2024/01/15 12:58:06;;;;;;;;;;;1.30;99.90;;;;;;4980334;28;19933;-74
2024/01/15 13:00:33;;;;;;;;;;;1.20;99.90;;;;;;4978990;28;19926;-73
2024/01/15 13:03:00;;;;;;;;;;;1.30;99.90;;;;;;4979093;28;19926;-74
2024/01/15 13:05:27;;;;;;;;;;;1.30;99.90;;;;;;4978725;28;20024;-73
2024/01/15 13:07:54;;;;;;;;;;;1.20;99.90;;;;;;4978826;28;19926;-73
2024/01/15 13:10:20;;;;;;;;;;;1.20;99.90;;;;;;4978205;28;19930;-74
2024/01/15 13:12:47;;;;;;;;;;;1.20;99.90;;;;;;4977896;28;19930;-73
2024/01/15 13:15:15;;;;;;;;;;;1.20;99.90;;;;;;4977563;28;20315;-73
2024/01/15 13:17:42;;;;;;;;;;;1.30;99.90;;;;;;4977195;28;19944;-73
2024/01/15 13:20:10;;;;;;;;;;;1.30;99.90;;;;;;4976941;28;19926;-73
2024/01/15 13:22:39;;;;;;;;;;;1.30;99.90;;;;;;4977261;28;19933;-73
2024/01/15 13:25:07;;;;;;;;;;;1.30;99.90;;;;;;4977051;28;19933;-73
2024/01/15 13:27:34;;;;;;;;;;;1.30;99.90;;;;;;4977328;28;19926;-73
2024/01/15 13:30:01;;;;;;;;;;;1.30;99.90;;;;;;4977037;28;20000;-73
2024/01/15 13:32:30;;;;;;;;;;;1.20;99.90;;;;;;4977036;28;19933;-73
2024/01/15 13:34:56;;;;;;;;;;;1.30;99.90;;;;;;4976946;28;20332;-73
2024/01/15 13:37:24;;;;;;;;;;;1.30;99.90;;;;;;4976995;28;19937;-73
2024/01/15 13:39:51;;;;;;;;;;;1.20;99.90;;;;;;4976953;28;19937;-73
2024/01/15 13:42:18;;;;;;;;;;;1.20;99.90;;;;;;4976901;28;19926;-73
2024/01/15 13:44:44;;;;;;;;;;;1.20;99.90;;;;;;4976911;28;19926;-73
2024/01/15 13:47:11;;;;;;;;;;;1.20;99.90;;;;;;4976615;28;19937;-73
2024/01/15 13:49:39;;;;;;;;;;;1.20;99.90;;;;;;4976661;28;19930;-73
2024/01/15 13:52:05;;;;;;;;;;;1.30;99.90;;;;;;4976575;28;19930;-73
2024/01/15 13:54:32;;;;;;;;;;;1.30;99.90;;;;;;4977177;28;19951;-73
2024/01/15 13:56:59;;;;;;;;;;;1.20;99.90;;;;;;4977459;28;20368;-73
2024/01/15 13:59:26;;;;;;;;;;;1.10;99.90;;;;;;4976340;28;19932;-73
2024/01/15 14:01:52;;;;;;;;;;;1.10;99.90;;;;;;4976515;28;19933;-73
2024/01/15 14:04:19;;;;;;;;;;;1.10;99.90;;;;;;4975892;28;19925;-74
2024/01/15 14:06:47;;;;;;;;;;;1.00;99.90;;;;;;4976387;28;19977;-74
2024/01/15 14:09:14;;;;;;;;;;;0.90;99.90;;;;;;4976286;28;19926;-74
2024/01/15 14:11:41;;;;;;;;;;;0.80;99.90;;;;;;4975934;28;19926;-74
2024/01/15 14:14:09;;;;;;;;;;;0.70;99.90;;;;;;4975905;28;19926;-74
2024/01/15 14:16:35;;;;;;;;;;;0.60;99.90;;;;;;4975981;28;19933;-74
2024/01/15 14:19:02;;;;;;;;;;;0.60;99.90;;;;;;4975939;28;19926;-74
2024/01/15 14:21:29;;;;;;;;;;;0.50;99.90;;;;;;4975822;28;19981;-74
2024/01/15 14:23:57;;;;;;;;;;;0.40;99.90;;;;;;4975830;28;19933;-74
2024/01/15 14:26:23;;;;;;;;;;;0.40;99.90;;;;;;4975684;28;19934;-74
2024/01/15 14:28:50;;;;;;;;;;;0.40;99.90;;;;;;4975777;28;19934;-74
2024/01/15 14:31:17;;;;;;;;;;;0.30;99.90;;;;;;4975566;28;19933;-74
2024/01/15 14:33:43;;;;;;;;;;;0.40;99.90;;;;;;4975616;28;19926;-74
2024/01/15 14:36:10;;;;;;;;;;;0.30;99.90;;;;;;4975740;28;19926;-74
2024/01/15 14:38:36;;;;;;;;;;;0.30;99.90;;;;;;4975705;28;19933;-74
2024/01/15 14:41:05;;;;;;;;;;;0.30;99.90;;;;;;4975624;28;19926;-74
2024/01/15 14:43:32;;;;;;;;;;;0.40;99.90;;;;;;4975871;28;19981;-73
2024/01/15 14:45:59;;;;;;;;;;;0.20;99.90;;;;;;4975570;28;19973;-73
2024/01/15 14:48:26;;;;;;;;;;;0.20;99.90;;;;;;4975594;28;19926;-73
2024/01/15 14:50:52;;;;;;;;;;;0.10;99.90;;;;;;4977201;28;19926;-73
2024/01/15 14:53:19;;;;;;;;;;;0.10;99.90;;;;;;4976548;28;20002;-73
2024/01/15 14:55:45;;;;;;;;;;;0.00;99.90;;;;;;4975514;28;19926;-73
2024/01/15 14:58:13;;;;;;;;;;;0.00;99.90;;;;;;4975500;28;19937;-73
2024/01/15 15:00:40;;;;;;;;;;;0.00;99.90;;;;;;4975129;28;19926;-73
2024/01/15 15:03:06;;;;;;;;;;;0.00;99.90;;;;;;4975658;28;19926;-73
2024/01/15 15:05:33;;;;;;;;;;;-0.10;99.90;;;;;;4976127;28;19933;-73
2024/01/15 15:07:59;;;;;;;;;;;-0.10;99.90;;;;;;4976235;28;19927;-73
2024/01/15 15:10:26;;;;;;;;;;;-0.20;99.90;;;;;;4975882;28;19930;-73
2024/01/15 15:12:53;;;;;;;;;;;-0.20;99.90;;;;;;4977655;28;19950;-74
2024/01/15 15:15:21;;;;;;;;;;;-0.20;99.90;;;;;;4978008;28;19933;-74
2024/01/15 15:17:48;;;;;;;;;;;-0.20;99.90;;;;;;4977192;28;19926;-75
2024/01/15 15:20:15;;;;;;;;;;;-0.30;99.90;;;;;;4977739;28;19926;-74
2024/01/15 15:22:42;;;;;;;;;;;-0.30;99.90;;;;;;4978707;28;19934;-73
2024/01/15 15:25:09;;;;;;;;;;;-0.30;99.90;;;;;;4977806;28;20281;-74
2024/01/15 15:27:36;;;;;;;;;;;-0.30;99.90;;;;;;4977502;28;19933;-74
2024/01/15 15:30:03;;;;;;;;;;;-0.40;99.90;;;;;;4978131;28;19926;-74
2024/01/15 15:32:31;;;;;;;;;;;-0.40;99.90;;;;;;4979506;28;19927;-74
2024/01/15 15:34:58;;;;;;;;;;;-0.20;99.90;;;;;;4980190;28;19934;-74
2024/01/15 15:37:25;;;;;;;;;;;-0.40;99.90;;;;;;4979470;28;19930;-74
2024/01/15 15:39:53;;;;;;;;;;;-0.40;99.90;;;;;;4978766;28;20384;-74
2024/01/15 15:42:19;;;;;;;;;;;-0.50;99.90;;;;;;4978698;28;19981;-74
2024/01/15 15:44:47;;;;;;;;;;;-0.50;99.90;;;;;;4978227;28;19969;-73
2024/01/15 15:47:14;;;;;;;;;;;-0.50;99.90;;;;;;4977790;28;20370;-72
2024/01/15 15:49:42;;;;;;;;;;;-0.50;99.90;;;;;;4979296;28;20360;-74
2024/01/15 15:52:10;;;;;;;;;;;-0.50;99.90;;;;;;4979646;28;20418;-74
2024/01/15 15:54:37;;;;;;;;;;;-0.50;99.90;;;;;;4979546;28;19926;-74
2024/01/15 15:57:04;;;;;;;;;;;-0.60;99.90;;;;;;4979125;28;19926;-73
2024/01/15 15:59:31;;;;;;;;;;;-0.60;99.90;;;;;;4978247;28;19926;-74
2024/01/15 16:01:57;;;;;;;;;;;-0.60;99.90;;;;;;4979011;28;19930;-73
2024/01/15 16:04:24;;;;;;;;;;;-0.60;99.90;;;;;;4977694;28;19926;-72
2024/01/15 16:06:53;;;;;;;;;;;-0.60;99.90;;;;;;4976902;28;19926;-73
2024/01/15 16:09:21;;;;;;;;;;;-0.70;99.90;;;;;;4976778;28;19933;-73
2024/01/15 16:11:48;;;;;;;;;;;-0.70;99.90;;;;;;4976105;28;20375;-73
2024/01/15 16:14:15;;;;;;;;;;;-0.70;99.90;;;;;;4976107;28;20341;-73
2024/01/15 16:16:41;;;;;;;;;;;-0.70;99.90;;;;;;4978485;28;20347;-73
2024/01/15 16:19:08;;;;;;;;;;;-0.80;99.90;;;;;;4975115;28;19933;-74
2024/01/15 16:21:35;;;;;;;;;;;-0.70;99.90;;;;;;4978952;28;20299;-74
2024/01/15 16:24:04;;;;;;;;;;;-0.70;99.90;;;;;;4979579;28;19926;-73
2024/01/15 16:26:31;;;;;;;;;;;-0.80;99.90;;;;;;4979238;28;20303;-73
2024/01/15 16:28:57;;;;;;;;;;;-0.80;99.90;;;;;;4980585;28;20384;-74
2024/01/15 16:31:24;;;;;;;;;;;-0.80;99.90;;;;;;4978091;28;20426;-74
2024/01/15 16:33:50;;;;;;;;;;;-0.80;99.90;;;;;;4978234;28;19933;-74
2024/01/15 16:36:17;;;;;;;;;;;-0.80;99.90;;;;;;4978544;28;19926;-74
2024/01/15 16:38:43;;;;;;;;;;;-0.80;99.90;;;;;;4977651;28;19937;-72
2024/01/15 16:41:11;;;;;;;;;;;-0.80;99.90;;;;;;4977944;28;19926;-72
2024/01/15 16:43:38;;;;;;;;;;;-0.80;99.90;;;;;;4978135;28;19934;-72
2024/01/15 16:46:03;;;;;;;;;;;-0.90;99.90;;;;;;4978085;28;19931;-72
2024/01/15 16:48:30;;;;;;;;;;;-1.00;99.90;;;;;;4978055;28;19931;-72
2024/01/15 16:50:57;;;;;;;;;;;-1.00;99.90;;;;;;4978184;28;19933;-72
2024/01/15 16:53:23;;;;;;;;;;;-1.10;99.90;;;;;;4978276;28;19963;-72
2024/01/15 16:55:50;;;;;;;;;;;-1.10;99.90;;;;;;4977910;28;19926;-74
2024/01/15 16:58:18;;;;;;;;;;;-1.20;99.90;;;;;;4978008;28;19935;-72
2024/01/15 17:00:44;;;;;;;;;;;-1.20;99.90;;;;;;4977384;28;19933;-71
2024/01/15 17:03:11;;;;;;;;;;;-1.20;99.90;;;;;;4977814;28;19933;-71
2024/01/15 17:05:38;;;;;;;;;;;-1.30;99.90;;;;;;4977595;28;19926;-71
2024/01/15 17:08:04;;;;;;;;;;;-1.30;99.90;;;;;;4977633;28;19933;-72
2024/01/15 17:10:31;;;;;;;;;;;-1.30;99.90;;;;;;5014649;23;19926;-73
2024/01/15 17:12:59;;;;;;;;;;;-1.30;99.90;;;;;;4977693;28;19926;-74
2024/01/15 17:15:27;;;;;;;;;;;-1.20;99.90;;;;;;4977291;28;20384;-75
2024/01/15 17:17:54;;;;;;;;;;;-1.20;99.90;;;;;;4976932;28;19957;-74
2024/01/15 17:20:20;;;;;;;;;;;-1.20;99.90;;;;;;4976597;28;20257;-73
2024/01/15 17:22:47;;;;;;;;;;;-1.20;99.90;;;;;;4977063;28;20340;-75
2024/01/15 17:25:14;;;;;;;;;;;-1.20;99.90;;;;;;4977111;28;20311;-73
2024/01/15 17:27:41;;;;;;;;;;;-1.30;99.90;;;;;;4977530;28;19926;-74
2024/01/15 17:30:08;;;;;;;;;;;-1.30;99.90;;;;;;4977842;28;19926;-74
2024/01/15 17:32:36;;;;;;;;;;;-1.30;99.90;;;;;;4977283;28;19977;-72
2024/01/15 17:35:03;;;;;;;;;;;-1.30;99.90;;;;;;4977435;28;19952;-73
2024/01/15 17:37:30;;;;;;;;;;;-1.40;99.90;;;;;;4977219;28;20043;-72
2024/01/15 17:39:56;;;;;;;;;;;-1.40;99.90;;;;;;4977273;28;19926;-73
2024/01/15 17:42:23;;;;;;;;;;;-1.40;99.90;;;;;;4977794;28;19934;-74
2024/01/15 17:44:51;;;;;;;;;;;-1.50;99.90;;;;;;4977412;28;19930;-74
2024/01/15 17:47:17;;;;;;;;;;;-1.50;99.90;;;;;;4977878;28;20317;-74
2024/01/15 17:49:45;;;;;;;;;;;-1.60;99.90;;;;;;4977410;28;19926;-74
2024/01/15 17:52:12;;;;;;;;;;;-1.60;99.90;;;;;;4977452;28;19937;-74
2024/01/15 17:54:38;;;;;;;;;;;-1.60;99.90;;;;;;4977915;28;19933;-74
2024/01/15 17:57:05;;;;;;;;;;;-1.70;99.90;;;;;;4977440;28;19926;-74
2024/01/15 17:59:32;;;;;;;;;;;-1.70;99.90;;;;;;4977148;28;19926;-74
2024/01/15 18:01:58;;;;;;;;;;;-1.70;99.90;;;;;;4977123;28;20033;-73
2024/01/15 18:04:25;;;;;;;;;;;-1.80;99.90;;;;;;4977405;28;19926;-73
2024/01/15 18:06:53;;;;;;;;;;;-1.80;99.90;;;;;;4977421;28;19926;-73
2024/01/15 18:09:20;;;;;;;;;;;-1.90;99.90;;;;;;4977446;28;20025;-73
2024/01/15 18:11:46;;;;;;;;;;;-1.90;99.90;;;;;;4977332;28;19926;-74
2024/01/15 18:14:15;;;;;;;;;;;-2.00;99.90;;;;;;4977203;28;19941;-74
2024/01/15 18:16:42;;;;;;;;;;;-2.00;99.90;;;;;;4976869;28;19935;-74
2024/01/15 18:19:08;;;;;;;;;;;-2.00;99.90;;;;;;4975975;28;20387;-73
2024/01/15 18:21:35;;;;;;;;;;;-2.00;99.90;;;;;;4976540;28;19933;-74
2024/01/15 18:24:03;;;;;;;;;;;-2.00;99.90;;;;;;4976752;28;19933;-74
2024/01/15 18:26:30;;;;;;;;;;;-2.00;99.90;;;;;;4975750;28;19926;-74
2024/01/15 18:28:57;;;;;;;;;;;-2.10;99.90;;;;;;4976612;28;19933;-74
2024/01/15 18:31:23;;;;;;;;;;;-2.10;99.90;;;;;;4976803;28;19937;-74
2024/01/15 18:33:50;;;;;;;;;;;-2.10;99.90;;;;;;4977430;28;19926;-74
2024/01/15 18:36:17;;;;;;;;;;;-2.10;99.90;;;;;;4980247;28;19926;-74
2024/01/15 18:38:43;;;;;;;;;;;-2.10;99.90;;;;;;4980323;28;19929;-74
2024/01/15 18:41:19;;;;;;;;;;;-2.00;99.90;;;;;;4980083;28;19927;-74
2024/01/15 18:43:45;;;;;;;;;;;-2.10;99.90;;;;;;4979244;28;19926;-74
2024/01/15 18:46:12;;;;;;;;;;;-2.10;99.90;;;;;;4977339;28;19926;-73
2024/01/15 18:48:39;;;;;;;;;;;-2.10;99.90;;;;;;4977185;28;20411;-74
2024/01/15 18:51:08;;;;;;;;;;;-2.10;99.90;;;;;;4976052;28;19981;-74
2024/01/15 18:53:35;;;;;;;;;;;-2.20;99.90;;;;;;4976559;28;19930;-74
2024/01/15 18:56:02;;;;;;;;;;;-2.20;99.90;;;;;;4976613;28;19926;-74
2024/01/15 18:58:31;;;;;;;;;;;-2.20;99.90;;;;;;4977745;28;19933;-73
2024/01/15 19:00:57;;;;;;;;;;;-2.30;99.90;;;;;;4977204;28;20457;-74
2024/01/15 19:03:24;;;;;;;;;;;-2.30;99.90;;;;;;4976586;28;19936;-71
2024/01/15 19:05:51;;;;;;;;;;;-2.30;99.90;;;;;;4976048;28;19933;-72
2024/01/15 19:08:17;;;;;;;;;;;-2.30;99.90;;;;;;4976919;28;19927;-70
2024/01/15 19:10:44;;;;;;;;;;;-2.30;99.90;;;;;;4975827;28;19930;-70
2024/01/15 19:13:12;;;;;;;;;;;-2.30;99.90;;;;;;4976061;28;19933;-71
2024/01/15 19:15:40;;;;;;;;;;;-2.40;99.90;;;;;;4976117;28;19926;-71
2024/01/15 19:18:08;;;;;;;;;;;-2.40;99.90;;;;;;4976274;28;19933;-74
2024/01/15 19:20:35;;;;;;;;;;;-2.40;99.90;;;;;;4975624;28;19926;-73
2024/01/15 19:23:02;;;;;;;;;;;-2.40;99.90;;;;;;4975584;28;19926;-72